Alfarata, PA

2:07 PM EDT on March 31, 2015 (GMT -0400)
New Lancaster Valley | | Change Station
CLOSE
Current Station
Personal Weather Station
Location: Milroy, PA
Elevation: 1240 ft
Nearby Weather Stations

Elev 1240 ft 40.77 °N, 77.35 °W | Updated 20 seconds ago

Rain
Rain
33.0 °F
Feels Like 33 °F
N
0.0
Wind Variable Wind from East
Gusts 1.0 mph

Today
High -- | Low -- °F
--% Chance of Precip.
Yesterday
High -- | Low -- °F
Precip. -- in
6:55 AM 7:32 PM
Waxing Gibbous, 88% visible
Pressure 29.67 in
Visibility 0.5 miles
Clouds Mostly Cloudy 200 ft
Mostly Cloudy 1900 ft
Overcast 3500 ft
Windchill 33 °F
Dew Point 31 °F
Humidity 93%
Rainfall 0.00 in
Snow Depth Not available.
UV 2 out of 12
Pollen .80 out of 12
Air Quality Not available.
Flu Activity Not available.
METAR KUNV 311753Z 04006KT 1/2SM -RA FG BKN002 BKN019 OVC035 00/00 A2967

More Conditions Fewer Conditions

Pressure 29.67 in
Visibility 0.5 miles
Clouds Mostly Cloudy 200 ft
Mostly Cloudy 1900 ft
Overcast 3500 ft
Windchill 33 °F
Dew Point 31 °F
Humidity 93%
Rainfall 0.00 in
Snow Depth Not available.
UV 2 out of 12
Pollen .80 out of 12
Air Quality Not available.
Flu Activity Not available.
METAR KUNV 311753Z 04006KT 1/2SM -RA FG BKN002 BKN019 OVC035 00/00 A2967

More Conditions Fewer Conditions

Nowcast | as of 1:15 PM EDT on March 31, 2015

An area of rain will move across the region through 3 PM. The rain may mix with or change to snow at times...especially over higher elevations. No significant snow accumulation is expected... but up to an inch is possible on grassy surfaces. Persons traveling today should allow extra travel time and be prepared for possible deteriorating travel conditions.

×

10-Day Weather Forecast

Almanac

Astronomy

Mar. 31, 2015 Rise Set
Actual Time
Civil Twilight
Nautical Twilight
Astronomical Twilight
Moon
Length of Visible Light
Length of Day
Tomorrow will be .
, % of the Moon is Illuminated

Today's Extremes

State Highs State Lows

Community

WunderPhotos

Upload Photos

1,809,786 photos uploaded!

WunderBlogs® & News

Nearby

Air Quality

  Air Quality AQ Index Pollutant
Not available.

Snow Depth

Station Depth Elevation

Earthquake Activity

City Distance Mag. Time & Date
Minimum magnitude displayed is 2.5.

Coastal Water Temperatures

Place Temperature

Stations

Nearby Weather Stations

Station Location Temp. Windchill Dew Point Humidity Wind Precip. Elev Updated Type